sensor_id;sensor_type;location;lat;lon;timestamp;pressure;altitude;pressure_sealevel;temperature;humidity
30421;BME280;17218;54.070;10.012;2022-10-16T00:01:37;100608.59;;;13.43;100.00
30421;BME280;17218;54.070;10.012;2022-10-16T00:04:04;100606.06;;;13.40;100.00
30421;BME280;17218;54.070;10.012;2022-10-16T00:06:31;100608.72;;;13.39;100.00
30421;BME280;17218;54.070;10.012;2022-10-16T00:08:58;100601.72;;;13.39;100.00
30421;BME280;17218;54.070;10.012;2022-10-16T00:11:26;100608.00;;;13.30;100.00
30421;BME280;17218;54.070;10.012;2022-10-16T00:13:57;100603.59;;;13.34;100.00
30421;BME280;17218;54.070;10.012;2022-10-16T00:16:25;100612.25;;;13.34;100.00
30421;BME280;17218;54.070;10.012;2022-10-16T00:18:51;100620.94;;;13.33;100.00
30421;BME280;17218;54.070;10.012;2022-10-16T00:21:22;100613.13;;;13.33;100.00
30421;BME280;17218;54.070;10.012;2022-10-16T00:23:50;100627.03;;;13.32;100.00
30421;BME280;17218;54.070;10.012;2022-10-16T00:26:18;100622.72;;;13.31;100.00
30421;BME280;17218;54.070;10.012;2022-10-16T00:28:46;100622.13;;;13.18;100.00
30421;BME280;17218;54.070;10.012;2022-10-16T00:31:14;100622.81;;;13.27;100.00
30421;BME280;17218;54.070;10.012;2022-10-16T00:33:41;100616.03;;;13.19;100.00
30421;BME280;17218;54.070;10.012;2022-10-16T00:36:11;100616.78;;;13.24;100.00
30421;BME280;17218;54.070;10.012;2022-10-16T00:38:38;100620.16;;;13.28;100.00
30421;BME280;17218;54.070;10.012;2022-10-16T00:41:05;100615.91;;;13.24;100.00
30421;BME280;17218;54.070;10.012;2022-10-16T00:43:39;100619.31;;;13.29;100.00
30421;BME280;17218;54.070;10.012;2022-10-16T00:46:17;100626.13;;;13.33;100.00
30421;BME280;17218;54.070;10.012;2022-10-16T00:48:48;100627.13;;;13.28;100.00
30421;BME280;17218;54.070;10.012;2022-10-16T00:51:15;100630.72;;;13.22;100.00
30421;BME280;17218;54.070;10.012;2022-10-16T00:53:41;100631.50;;;13.26;100.00
30421;BME280;17218;54.070;10.012;2022-10-16T00:56:08;100630.56;;;13.28;100.00
30421;BME280;17218;54.070;10.012;2022-10-16T00:58:34;100633.13;;;13.30;100.00
30421;BME280;17218;54.070;10.012;2022-10-16T01:01:01;100636.53;;;13.33;100.00
30421;BME280;17218;54.070;10.012;2022-10-16T01:03:31;100635.63;;;13.36;100.00
30421;BME280;17218;54.070;10.012;2022-10-16T01:06:07;100636.53;;;13.33;100.00
30421;BME280;17218;54.070;10.012;2022-10-16T01:08:45;100645.34;;;13.28;100.00
30421;BME280;17218;54.070;10.012;2022-10-16T01:11:22;100640.28;;;13.20;100.00
30421;BME280;17218;54.070;10.012;2022-10-16T01:13:53;100638.44;;;13.25;100.00
30421;BME280;17218;54.070;10.012;2022-10-16T01:16:28;100645.31;;;13.29;100.00
30421;BME280;17218;54.070;10.012;2022-10-16T01:19:05;100643.75;;;13.19;100.00
30421;BME280;17218;54.070;10.012;2022-10-16T01:21:40;100637.72;;;13.17;100.00
30421;BME280;17218;54.070;10.012;2022-10-16T01:24:12;100649.91;;;13.16;100.00
30421;BME280;17218;54.070;10.012;2022-10-16T01:27:12;100648.09;;;13.20;100.00
30421;BME280;17218;54.070;10.012;2022-10-16T01:29:44;100650.63;;;13.23;100.00
30421;BME280;17218;54.070;10.012;2022-10-16T01:32:17;100649.88;;;13.18;100.00
30421;BME280;17218;54.070;10.012;2022-10-16T01:34:49;100651.75;;;13.09;100.00
30421;BME280;17218;54.070;10.012;2022-10-16T01:37:24;100660.50;;;13.04;100.00
30421;BME280;17218;54.070;10.012;2022-10-16T01:39:53;100653.50;;;13.09;100.00
30421;BME280;17218;54.070;10.012;2022-10-16T01:42:27;100662.22;;;13.06;100.00
30421;BME280;17218;54.070;10.012;2022-10-16T01:44:55;100646.50;;;13.12;100.00
30421;BME280;17218;54.070;10.012;2022-10-16T01:47:25;100650.03;;;13.08;100.00
30421;BME280;17218;54.070;10.012;2022-10-16T01:49:53;100647.56;;;13.02;100.00
30421;BME280;17218;54.070;10.012;2022-10-16T01:52:23;100637.13;;;13.05;100.00
30421;BME280;17218;54.070;10.012;2022-10-16T01:54:53;100651.06;;;13.01;100.00
30421;BME280;17218;54.070;10.012;2022-10-16T01:57:23;100644.28;;;12.92;100.00
30421;BME280;17218;54.070;10.012;2022-10-16T01:59:54;100645.09;;;12.96;100.00
30421;BME280;17218;54.070;10.012;2022-10-16T02:02:21;100649.25;;;13.05;100.00
30421;BME280;17218;54.070;10.012;2022-10-16T02:04:53;100636.53;;;12.89;100.00
30421;BME280;17218;54.070;10.012;2022-10-16T02:07:22;100630.47;;;12.90;100.00
30421;BME280;17218;54.070;10.012;2022-10-16T02:09:49;100642.53;;;12.94;100.00
30421;BME280;17218;54.070;10.012;2022-10-16T02:12:20;100633.00;;;12.93;100.00
30421;BME280;17218;54.070;10.012;2022-10-16T02:14:49;100638.31;;;12.87;100.00
30421;BME280;17218;54.070;10.012;2022-10-16T02:17:17;100646.09;;;12.88;100.00
30421;BME280;17218;54.070;10.012;2022-10-16T02:19:45;100652.16;;;12.87;100.00
30421;BME280;17218;54.070;10.012;2022-10-16T02:22:16;100651.41;;;12.81;100.00
30421;BME280;17218;54.070;10.012;2022-10-16T02:24:50;100642.66;;;12.86;100.00
30421;BME280;17218;54.070;10.012;2022-10-16T02:27:25;100644.34;;;12.87;100.00
30421;BME280;17218;54.070;10.012;2022-10-16T02:29:59;100648.56;;;12.95;100.00
30421;BME280;17218;54.070;10.012;2022-10-16T02:32:30;100647.56;;;13.02;100.00
30421;BME280;17218;54.070;10.012;2022-10-16T02:34:58;100648.31;;;13.09;100.00
30421;BME280;17218;54.070;10.012;2022-10-16T02:37:26;100652.72;;;13.04;100.00
30421;BME280;17218;54.070;10.012;2022-10-16T02:39:54;100645.91;;;12.96;100.00
30421;BME280;17218;54.070;10.012;2022-10-16T02:42:27;100651.13;;;12.98;100.00
30421;BME280;17218;54.070;10.012;2022-10-16T02:44:55;100646.72;;;13.00;100.00
30421;BME280;17218;54.070;10.012;2022-10-16T02:47:22;100647.59;;;13.00;100.00
30421;BME280;17218;54.070;10.012;2022-10-16T02:49:48;100644.94;;;13.02;100.00
30421;BME280;17218;54.070;10.012;2022-10-16T02:52:15;100638.19;;;12.93;100.00
30421;BME280;17218;54.070;10.012;2022-10-16T02:54:41;100642.56;;;12.91;100.00
30421;BME280;17218;54.070;10.012;2022-10-16T02:57:08;100645.97;;;12.93;100.00
30421;BME280;17218;54.070;10.012;2022-10-16T02:59:34;100639.13;;;12.89;100.00
30421;BME280;17218;54.070;10.012;2022-10-16T03:02:02;100645.41;;;12.77;100.00
30421;BME280;17218;54.070;10.012;2022-10-16T03:04:29;100647.28;;;12.70;100.00
30421;BME280;17218;54.070;10.012;2022-10-16T03:06:55;100644.75;;;12.66;100.00
30421;BME280;17218;54.070;10.012;2022-10-16T03:09:22;100644.66;;;12.72;100.00
30421;BME280;17218;54.070;10.012;2022-10-16T03:11:48;100640.25;;;12.75;100.00
30421;BME280;17218;54.070;10.012;2022-10-16T03:14:15;100635.91;;;12.74;100.00
30421;BME280;17218;54.070;10.012;2022-10-16T03:16:41;100646.56;;;12.60;100.00
30421;BME280;17218;54.070;10.012;2022-10-16T03:19:09;100638.91;;;12.52;100.00
30421;BME280;17218;54.070;10.012;2022-10-16T03:21:36;100647.66;;;12.47;100.00
30421;BME280;17218;54.070;10.012;2022-10-16T03:24:02;100638.94;;;12.51;100.00
30421;BME280;17218;54.070;10.012;2022-10-16T03:26:29;100633.69;;;12.54;100.00
30421;BME280;17218;54.070;10.012;2022-10-16T03:28:55;100657.06;;;12.54;100.00
30421;BME280;17218;54.070;10.012;2022-10-16T03:31:22;100640.69;;;12.49;100.00
30421;BME280;17218;54.070;10.012;2022-10-16T03:33:48;100648.50;;;12.49;100.00
30421;BME280;17218;54.070;10.012;2022-10-16T03:36:16;100649.59;;;12.34;100.00
30421;BME280;17218;54.070;10.012;2022-10-16T03:38:43;100644.41;;;12.34;100.00
30421;BME280;17218;54.070;10.012;2022-10-16T03:41:09;100658.19;;;12.37;100.00
30421;BME280;17218;54.070;10.012;2022-10-16T03:43:35;100660.78;;;12.37;100.00
30421;BME280;17218;54.070;10.012;2022-10-16T03:46:02;100667.88;;;12.29;100.00
30421;BME280;17218;54.070;10.012;2022-10-16T03:48:29;100660.91;;;12.31;100.00
30421;BME280;17218;54.070;10.012;2022-10-16T03:50:55;100655.72;;;12.31;100.00
30421;BME280;17218;54.070;10.012;2022-10-16T03:53:23;100669.56;;;12.30;100.00
30421;BME280;17218;54.070;10.012;2022-10-16T03:55:50;100675.69;;;12.27;100.00
30421;BME280;17218;54.070;10.012;2022-10-16T03:58:16;100669.59;;;12.28;100.00
30421;BME280;17218;54.070;10.012;2022-10-16T04:00:43;100660.16;;;12.23;100.00
30421;BME280;17218;54.070;10.012;2022-10-16T04:03:11;100666.31;;;12.19;100.00
30421;BME280;17218;54.070;10.012;2022-10-16T04:05:37;100673.28;;;12.13;100.00
30421;BME280;17218;54.070;10.012;2022-10-16T04:08:04;100670.72;;;12.09;100.00
30421;BME280;17218;54.070;10.012;2022-10-16T04:10:32;100680.34;;;12.02;100.00
30421;BME280;17218;54.070;10.012;2022-10-16T04:12:58;100687.34;;;11.98;100.00
30421;BME280;17218;54.070;10.012;2022-10-16T04:15:25;100691.59;;;12.01;100.00
30421;BME280;17218;54.070;10.012;2022-10-16T04:17:52;100695.97;;;11.99;100.00
30421;BME280;17218;54.070;10.012;2022-10-16T04:20:18;100697.72;;;11.98;100.00
30421;BME280;17218;54.070;10.012;2022-10-16T04:22:45;100700.34;;;11.95;100.00
30421;BME280;17218;54.070;10.012;2022-10-16T04:25:11;100704.63;;;11.99;100.00
30421;BME280;17218;54.070;10.012;2022-10-16T04:27:39;100693.34;;;11.99;100.00
30421;BME280;17218;54.070;10.012;2022-10-16T04:30:07;100703.63;;;12.08;100.00
30421;BME280;17218;54.070;10.012;2022-10-16T04:32:33;100698.44;;;12.08;100.00
30421;BME280;17218;54.070;10.012;2022-10-16T04:35:00;100701.91;;;12.10;100.00
30421;BME280;17218;54.070;10.012;2022-10-16T04:37:26;100702.66;;;12.17;100.00
30421;BME280;17218;54.070;10.012;2022-10-16T04:39:53;100710.34;;;12.25;100.00
30421;BME280;17218;54.070;10.012;2022-10-16T04:42:20;100708.66;;;12.21;100.00
30421;BME280;17218;54.070;10.012;2022-10-16T04:44:48;100713.03;;;12.20;100.00
30421;BME280;17218;54.070;10.012;2022-10-16T04:47:14;100706.00;;;12.25;100.00
30421;BME280;17218;54.070;10.012;2022-10-16T04:49:41;100710.19;;;12.36;100.00
30421;BME280;17218;54.070;10.012;2022-10-16T04:52:07;100709.16;;;12.45;100.00
30421;BME280;17218;54.070;10.012;2022-10-16T04:54:34;100702.31;;;12.39;100.00
30421;BME280;17218;54.070;10.012;2022-10-16T04:57:01;100713.56;;;12.41;100.00
30421;BME280;17218;54.070;10.012;2022-10-16T04:59:27;100708.38;;;12.39;100.00
30421;BME280;17218;54.070;10.012;2022-10-16T05:01:55;100711.81;;;12.42;100.00
30421;BME280;17218;54.070;10.012;2022-10-16T05:04:22;100724.88;;;12.38;100.00
30421;BME280;17218;54.070;10.012;2022-10-16T05:06:48;100725.72;;;12.37;100.00
30421;BME280;17218;54.070;10.012;2022-10-16T05:09:15;100725.88;;;12.28;100.00
30421;BME280;17218;54.070;10.012;2022-10-16T05:11:41;100729.34;;;12.27;100.00
30421;BME280;17218;54.070;10.012;2022-10-16T05:14:08;100715.50;;;12.26;100.00
30421;BME280;17218;54.070;10.012;2022-10-16T05:16:34;100715.47;;;12.28;100.00
30421;BME280;17218;54.070;10.012;2022-10-16T05:19:02;100719.69;;;12.37;100.00
30421;BME280;17218;54.070;10.012;2022-10-16T05:21:28;100714.28;;;12.51;100.00
30421;BME280;17218;54.070;10.012;2022-10-16T05:23:55;100722.97;;;12.48;100.00
30421;BME280;17218;54.070;10.012;2022-10-16T05:26:21;100724.81;;;12.42;100.00
30421;BME280;17218;54.070;10.012;2022-10-16T05:28:49;100730.94;;;12.37;100.00
30421;BME280;17218;54.070;10.012;2022-10-16T05:31:15;100737.84;;;12.38;100.00
30421;BME280;17218;54.070;10.012;2022-10-16T05:33:42;100730.94;;;12.36;100.00
30421;BME280;17218;54.070;10.012;2022-10-16T05:36:10;100739.66;;;12.32;100.00
30421;BME280;17218;54.070;10.012;2022-10-16T05:38:38;100753.53;;;12.32;100.00
30421;BME280;17218;54.070;10.012;2022-10-16T05:41:05;100750.09;;;12.28;100.00
30421;BME280;17218;54.070;10.012;2022-10-16T05:43:32;100761.44;;;12.23;100.00
30421;BME280;17218;54.070;10.012;2022-10-16T05:46:00;100751.91;;;12.25;100.00
30421;BME280;17218;54.070;10.012;2022-10-16T05:48:27;100763.25;;;12.18;100.00
30421;BME280;17218;54.070;10.012;2022-10-16T05:50:58;100763.34;;;12.10;100.00
30421;BME280;17218;54.070;10.012;2022-10-16T05:53:26;100768.50;;;12.11;100.00
30421;BME280;17218;54.070;10.012;2022-10-16T05:55:53;100765.88;;;12.16;100.00
30421;BME280;17218;54.070;10.012;2022-10-16T05:58:20;100765.03;;;12.14;100.00
30421;BME280;17218;54.070;10.012;2022-10-16T06:00:52;100757.13;;;12.23;100.00
30421;BME280;17218;54.070;10.012;2022-10-16T06:03:19;100756.13;;;12.32;100.00
30421;BME280;17218;54.070;10.012;2022-10-16T06:05:45;100766.47;;;12.35;100.00
30421;BME280;17218;54.070;10.012;2022-10-16T06:08:12;100759.41;;;12.45;100.00
30421;BME280;17218;54.070;10.012;2022-10-16T06:10:40;100771.38;;;12.54;100.00
30421;BME280;17218;54.070;10.012;2022-10-16T06:13:06;100771.56;;;12.42;100.00
30421;BME280;17218;54.070;10.012;2022-10-16T06:15:33;100764.50;;;12.51;100.00
30421;BME280;17218;54.070;10.012;2022-10-16T06:17:59;100751.50;;;12.53;100.00
30421;BME280;17218;54.070;10.012;2022-10-16T06:20:26;100767.19;;;12.45;100.00
30421;BME280;17218;54.070;10.012;2022-10-16T06:22:52;100765.34;;;12.52;100.00
30421;BME280;17218;54.070;10.012;2022-10-16T06:25:18;100772.31;;;12.48;100.00
30421;BME280;17218;54.070;10.012;2022-10-16T06:27:46;100778.50;;;12.43;100.00
30421;BME280;17218;54.070;10.012;2022-10-16T06:30:13;100779.38;;;12.42;100.00
30421;BME280;17218;54.070;10.012;2022-10-16T06:32:39;100777.53;;;12.50;100.00
30421;BME280;17218;54.070;10.012;2022-10-16T06:35:07;100774.88;;;12.53;100.00
30421;BME280;17218;54.070;10.012;2022-10-16T06:37:33;100780.84;;;12.58;100.00
30421;BME280;17218;54.070;10.012;2022-10-16T06:40:00;100778.22;;;12.60;100.00
30421;BME280;17218;54.070;10.012;2022-10-16T06:42:29;100790.38;;;12.61;100.00
30421;BME280;17218;54.070;10.012;2022-10-16T06:44:57;100799.84;;;12.62;100.00
30421;BME280;17218;54.070;10.012;2022-10-16T06:47:24;100793.75;;;12.66;100.00
30421;BME280;17218;54.070;10.012;2022-10-16T06:49:50;100800.75;;;12.61;100.00
30421;BME280;17218;54.070;10.012;2022-10-16T06:52:17;100806.84;;;12.58;100.00
30421;BME280;17218;54.070;10.012;2022-10-16T06:54:43;100814.66;;;12.57;100.00
30421;BME280;17218;54.070;10.012;2022-10-16T06:57:10;100816.16;;;12.73;100.00
30421;BME280;17218;54.070;10.012;2022-10-16T06:59:36;100804.84;;;12.78;100.00
30421;BME280;17218;54.070;10.012;2022-10-16T07:02:04;100825.56;;;12.82;100.00
30421;BME280;17218;54.070;10.012;2022-10-16T07:04:32;100817.84;;;12.78;100.00
30421;BME280;17218;54.070;10.012;2022-10-16T07:07:00;100829.91;;;12.80;100.00
30421;BME280;17218;54.070;10.012;2022-10-16T07:09:26;100827.25;;;12.85;100.00
30421;BME280;17218;54.070;10.012;2022-10-16T07:11:53;100836.94;;;12.73;100.00
30421;BME280;17218;54.070;10.012;2022-10-16T07:14:21;100842.97;;;12.77;100.00
30421;BME280;17218;54.070;10.012;2022-10-16T07:16:47;100846.34;;;12.82;100.00
30421;BME280;17218;54.070;10.012;2022-10-16T07:19:15;100853.13;;;12.94;100.00
30421;BME280;17218;54.070;10.012;2022-10-16T07:21:43;100859.00;;;13.04;100.00
30421;BME280;17218;54.070;10.012;2022-10-16T07:24:12;100850.22;;;13.11;100.00
30421;BME280;17218;54.070;10.012;2022-10-16T07:26:40;100848.44;;;13.15;100.00
30421;BME280;17218;54.070;10.012;2022-10-16T07:29:12;100845.59;;;13.31;100.00
30421;BME280;17218;54.070;10.012;2022-10-16T07:31:39;100851.69;;;13.28;100.00
30421;BME280;17218;54.070;10.012;2022-10-16T07:34:05;100850.84;;;13.26;100.00
30421;BME280;17218;54.070;10.012;2022-10-16T07:36:33;100852.81;;;13.15;100.00
30421;BME280;17218;54.070;10.012;2022-10-16T07:38:59;100851.78;;;13.23;100.00
30421;BME280;17218;54.070;10.012;2022-10-16T07:41:26;100846.66;;;13.17;100.00
30421;BME280;17218;54.070;10.012;2022-10-16T07:43:54;100862.16;;;13.25;100.00
30421;BME280;17218;54.070;10.012;2022-10-16T07:46:22;100858.72;;;13.23;100.00
30421;BME280;17218;54.070;10.012;2022-10-16T07:48:49;100860.41;;;13.27;100.00
30421;BME280;17218;54.070;10.012;2022-10-16T07:51:18;100870.69;;;13.35;100.00
30421;BME280;17218;54.070;10.012;2022-10-16T07:53:46;100874.75;;;13.48;100.00
30421;BME280;17218;54.070;10.012;2022-10-16T07:56:13;100872.00;;;13.59;100.00
30421;BME280;17218;54.070;10.012;2022-10-16T07:58:40;100873.78;;;13.57;100.00
30421;BME280;17218;54.070;10.012;2022-10-16T08:01:08;100860.44;;;13.76;100.00
30421;BME280;17218;54.070;10.012;2022-10-16T08:03:35;100859.38;;;13.87;100.00
30421;BME280;17218;54.070;10.012;2022-10-16T08:06:03;100851.41;;;13.96;100.00
30421;BME280;17218;54.070;10.012;2022-10-16T08:08:30;100845.31;;;13.95;100.00
30421;BME280;17218;54.070;10.012;2022-10-16T08:10:58;100855.88;;;13.88;100.00
30421;BME280;17218;54.070;10.012;2022-10-16T08:13:24;100850.47;;;13.99;100.00
30421;BME280;17218;54.070;10.012;2022-10-16T08:15:51;100856.44;;;14.04;100.00
30421;BME280;17218;54.070;10.012;2022-10-16T08:18:19;100863.19;;;14.14;100.00
30421;BME280;17218;54.070;10.012;2022-10-16T08:20:46;100866.50;;;14.21;100.00
30421;BME280;17218;54.070;10.012;2022-10-16T08:23:13;100875.41;;;14.09;100.00
30421;BME280;17218;54.070;10.012;2022-10-16T08:25:40;100883.22;;;14.11;100.00
30421;BME280;17218;54.070;10.012;2022-10-16T08:28:10;100890.84;;;14.22;100.00
30421;BME280;17218;54.070;10.012;2022-10-16T08:30:36;100892.38;;;14.30;100.00
30421;BME280;17218;54.070;10.012;2022-10-16T08:33:04;100882.81;;;14.31;100.00
30421;BME280;17218;54.070;10.012;2022-10-16T08:35:31;100879.38;;;14.29;100.00
30421;BME280;17218;54.070;10.012;2022-10-16T08:37:57;100894.88;;;14.37;100.00
30421;BME280;17218;54.070;10.012;2022-10-16T08:40:26;100901.78;;;14.38;100.00
30421;BME280;17218;54.070;10.012;2022-10-16T08:43:03;100893.94;;;14.39;100.00
30421;BME280;17218;54.070;10.012;2022-10-16T08:45:42;100897.03;;;14.59;100.00
30421;BME280;17218;54.070;10.012;2022-10-16T08:48:17;100899.22;;;14.77;100.00
30421;BME280;17218;54.070;10.012;2022-10-16T08:50:47;100897.53;;;14.75;100.00
30421;BME280;17218;54.070;10.012;2022-10-16T08:53:20;100887.28;;;14.67;100.00
30421;BME280;17218;54.070;10.012;2022-10-16T08:55:50;100889.28;;;14.54;100.00
30421;BME280;17218;54.070;10.012;2022-10-16T08:58:19;100893.34;;;14.67;100.00
30421;BME280;17218;54.070;10.012;2022-10-16T09:00:49;100902.81;;;14.72;100.00
30421;BME280;17218;54.070;10.012;2022-10-16T09:03:23;100906.97;;;14.82;100.00
30421;BME280;17218;54.070;10.012;2022-10-16T09:05:57;100913.09;;;14.78;100.00
30421;BME280;17218;54.070;10.012;2022-10-16T09:08:30;100917.44;;;14.79;100.00
30421;BME280;17218;54.070;10.012;2022-10-16T09:11:06;100914.66;;;14.87;100.00
30421;BME280;17218;54.070;10.012;2022-10-16T09:13:44;100926.34;;;15.10;100.00
30421;BME280;17218;54.070;10.012;2022-10-16T09:16:19;100922.91;;;15.08;100.00
30421;BME280;17218;54.070;10.012;2022-10-16T09:18:53;100928.03;;;15.12;100.00
30421;BME280;17218;54.070;10.012;2022-10-16T09:21:24;100932.88;;;15.28;100.00
30421;BME280;17218;54.070;10.012;2022-10-16T09:23:51;100930.25;;;15.28;100.00
30421;BME280;17218;54.070;10.012;2022-10-16T09:26:18;100925.91;;;15.29;100.00
30421;BME280;17218;54.070;10.012;2022-10-16T09:28:47;100952.63;;;15.38;100.00
30421;BME280;17218;54.070;10.012;2022-10-16T09:31:19;100943.47;;;15.22;100.00
30421;BME280;17218;54.070;10.012;2022-10-16T09:33:50;100934.72;;;15.23;100.00
30421;BME280;17218;54.070;10.012;2022-10-16T09:36:19;100935.97;;;15.44;100.00
30421;BME280;17218;54.070;10.012;2022-10-16T09:38:46;100930.72;;;15.79;100.00
30421;BME280;17218;54.070;10.012;2022-10-16T09:41:17;100957.66;;;15.83;100.00
30421;BME280;17218;54.070;10.012;2022-10-16T09:43:51;100950.06;;;15.72;100.00
30421;BME280;17218;54.070;10.012;2022-10-16T09:46:26;100968.53;;;15.66;100.00
30421;BME280;17218;54.070;10.012;2022-10-16T09:48:55;100956.53;;;15.58;100.00
30421;BME280;17218;54.070;10.012;2022-10-16T09:51:24;100959.97;;;15.59;100.00
30421;BME280;17218;54.070;10.012;2022-10-16T09:53:56;100959.88;;;15.64;100.00
30421;BME280;17218;54.070;10.012;2022-10-16T09:56:25;100975.84;;;15.51;100.00
30421;BME280;17218;54.070;10.012;2022-10-16T09:58:53;100968.06;;;15.49;100.00
30421;BME280;17218;54.070;10.012;2022-10-16T10:01:22;100980.63;;;15.70;100.00
30421;BME280;17218;54.070;10.012;2022-10-16T10:03:55;100985.56;;;15.79;100.00
30421;BME280;17218;54.070;10.012;2022-10-16T10:06:28;100975.28;;;16.09;100.00
30421;BME280;17218;54.070;10.012;2022-10-16T10:09:00;100993.31;;;16.19;100.00
30421;BME280;17218;54.070;10.012;2022-10-16T10:11:43;100986.25;;;16.23;100.00
30421;BME280;17218;54.070;10.012;2022-10-16T10:14:28;100985.69;;;16.43;100.00
30421;BME280;17218;54.070;10.012;2022-10-16T10:17:09;100981.44;;;16.39;100.00
30421;BME280;17218;54.070;10.012;2022-10-16T10:19:43;100979.22;;;16.25;100.00
30421;BME280;17218;54.070;10.012;2022-10-16T10:22:17;100979.22;;;16.25;100.00
30421;BME280;17218;54.070;10.012;2022-10-16T10:24:46;100980.78;;;16.32;100.00
30421;BME280;17218;54.070;10.012;2022-10-16T10:27:23;100983.53;;;16.27;100.00
30421;BME280;17218;54.070;10.012;2022-10-16T10:29:56;100991.31;;;16.29;100.00
30421;BME280;17218;54.070;10.012;2022-10-16T10:32:31;100996.53;;;16.29;100.00
30421;BME280;17218;54.070;10.012;2022-10-16T10:35:14;100984.75;;;16.14;100.00
30421;BME280;17218;54.070;10.012;2022-10-16T10:37:54;100997.78;;;16.15;100.00
30421;BME280;17218;54.070;10.012;2022-10-16T10:40:34;101003.63;;;16.24;100.00
30421;BME280;17218;54.070;10.012;2022-10-16T10:43:12;100996.94;;;16.47;100.00
30421;BME280;17218;54.070;10.012;2022-10-16T10:45:43;101012.63;;;16.47;100.00
30421;BME280;17218;54.070;10.012;2022-10-16T10:48:43;101017.53;;;16.57;100.00
30421;BME280;17218;54.070;10.012;2022-10-16T10:51:21;101002.00;;;16.83;100.00
30421;BME280;17218;54.070;10.012;2022-10-16T10:53:54;100989.44;;;16.66;100.00
30421;BME280;17218;54.070;10.012;2022-10-16T10:56:40;101006.19;;;16.59;100.00
30421;BME280;17218;54.070;10.012;2022-10-16T10:59:21;101007.38;;;16.47;100.00
30421;BME280;17218;54.070;10.012;2022-10-16T11:01:55;101009.59;;;16.61;100.00
30421;BME280;17218;54.070;10.012;2022-10-16T11:04:34;101009.13;;;16.78;100.00
30421;BME280;17218;54.070;10.012;2022-10-16T11:07:05;101015.47;;;16.69;100.00
30421;BME280;17218;54.070;10.012;2022-10-16T11:09:37;101020.16;;;16.57;100.00
30421;BME280;17218;54.070;10.012;2022-10-16T11:12:08;101030.16;;;16.75;100.00
30421;BME280;17218;54.070;10.012;2022-10-16T11:14:41;101027.06;;;16.92;100.00
30421;BME280;17218;54.070;10.012;2022-10-16T11:17:13;101016.69;;;16.87;100.00
30421;BME280;17218;54.070;10.012;2022-10-16T11:19:46;101034.47;;;17.06;100.00
30421;BME280;17218;54.070;10.012;2022-10-16T11:22:19;101038.75;;;17.09;100.00
30421;BME280;17218;54.070;10.012;2022-10-16T11:24:53;101044.47;;;17.23;100.00
30421;BME280;17218;54.070;10.012;2022-10-16T11:27:28;101047.56;;;17.36;100.00
30421;BME280;17218;54.070;10.012;2022-10-16T11:30:02;101055.78;;;17.52;100.00
30421;BME280;17218;54.070;10.012;2022-10-16T11:32:33;101054.06;;;17.51;100.00
30421;BME280;17218;54.070;10.012;2022-10-16T11:35:06;101047.34;;;17.71;100.00
30421;BME280;17218;54.070;10.012;2022-10-16T11:37:40;101054.34;;;17.71;100.00
30421;BME280;17218;54.070;10.012;2022-10-16T11:40:20;101061.97;;;17.50;100.00
30421;BME280;17218;54.070;10.012;2022-10-16T11:42:51;101070.50;;;17.28;100.00
30421;BME280;17218;54.070;10.012;2022-10-16T11:55:42;101088.41;;;16.80;100.00
30421;BME280;17218;54.070;10.012;2022-10-16T11:58:16;101083.63;;;17.57;100.00
30421;BME280;17218;54.070;10.012;2022-10-16T12:00:53;101085.16;;;18.93;100.00
30421;BME280;17218;54.070;10.012;2022-10-16T12:03:28;101075.06;;;20.40;100.00
30421;BME280;17218;54.070;10.012;2022-10-16T12:06:19;101073.88;;;22.51;84.96
30421;BME280;17218;54.070;10.012;2022-10-16T12:08:49;101076.91;;;22.44;78.77
30421;BME280;17218;54.070;10.012;2022-10-16T12:11:24;101081.63;;;22.72;84.23
30421;BME280;17218;54.070;10.012;2022-10-16T12:14:16;101098.34;;;23.38;77.43
30421;BME280;17218;54.070;10.012;2022-10-16T12:16:51;101108.94;;;23.38;65.18
30421;BME280;17218;54.070;10.012;2022-10-16T12:19:19;101097.22;;;22.93;71.44
30421;BME280;17218;54.070;10.012;2022-10-16T12:21:56;101109.41;;;22.28;77.74
30421;BME280;17218;54.070;10.012;2022-10-16T12:24:33;101105.66;;;22.32;86.00
30421;BME280;17218;54.070;10.012;2022-10-16T12:27:04;101112.75;;;23.16;63.87
30421;BME280;17218;54.070;10.012;2022-10-16T12:29:36;101113.81;;;23.13;62.57
30421;BME280;17218;54.070;10.012;2022-10-16T12:32:05;101118.91;;;22.66;64.32
30421;BME280;17218;54.070;10.012;2022-10-16T12:34:44;101126.81;;;21.95;71.30
30421;BME280;17218;54.070;10.012;2022-10-16T12:37:14;101119.31;;;20.91;89.15
30421;BME280;17218;54.070;10.012;2022-10-16T12:39:45;101135.06;;;19.86;99.69
30421;BME280;17218;54.070;10.012;2022-10-16T12:42:23;101139.47;;;19.86;100.00
30421;BME280;17218;54.070;10.012;2022-10-16T12:44:50;101146.63;;;19.60;100.00
30421;BME280;17218;54.070;10.012;2022-10-16T12:47:22;101145.13;;;18.80;100.00
30421;BME280;17218;54.070;10.012;2022-10-16T12:49:49;101154.22;;;18.44;100.00
30421;BME280;17218;54.070;10.012;2022-10-16T12:52:27;101153.25;;;18.47;100.00
30421;BME280;17218;54.070;10.012;2022-10-16T12:54:56;101162.06;;;19.21;100.00